createdAt,value
2022-11-25T00:00:50.202Z,13.05
2022-11-25T00:03:18.176Z,10.52
2022-11-25T00:05:47.305Z,10.05
2022-11-25T00:08:14.944Z,10.40
2022-11-25T00:10:42.634Z,8.10
2022-11-25T00:13:10.447Z,10.82
2022-11-25T00:15:38.143Z,9.63
2022-11-25T00:18:05.900Z,9.55
2022-11-25T00:20:33.594Z,10.27
2022-11-25T00:23:02.618Z,10.02
2022-11-25T00:25:30.311Z,9.50
2022-11-25T00:27:58.045Z,10.82
2022-11-25T00:30:25.731Z,9.80
2022-11-25T00:32:54.412Z,10.15
2022-11-25T00:35:22.392Z,9.55
2022-11-25T00:37:50.080Z,10.27
2022-11-25T00:40:19.253Z,10.93
2022-11-25T00:43:04.512Z,12.65
2022-11-25T00:45:32.195Z,12.00
2022-11-25T00:47:59.938Z,6.65
2022-11-25T00:50:27.632Z,8.80
2022-11-25T00:52:55.341Z,11.20
2022-11-25T00:55:24.357Z,9.63
2022-11-25T00:57:52.059Z,11.00
2022-11-25T01:00:20.060Z,12.05
2022-11-25T01:02:49.304Z,8.23
2022-11-25T01:05:17.006Z,11.35
2022-11-25T01:07:44.726Z,6.88
2022-11-25T01:10:13.026Z,11.85
2022-11-25T01:12:42.058Z,11.00
2022-11-25T01:15:10.811Z,9.65
2022-11-25T01:17:38.492Z,12.98
2022-11-25T01:20:07.721Z,9.65
2022-11-25T01:22:35.340Z,11.63
2022-11-25T01:25:03.001Z,9.45
2022-11-25T01:27:30.708Z,12.88
2022-11-25T01:29:59.793Z,8.27
2022-11-25T01:32:27.463Z,12.48
2022-11-25T01:34:55.075Z,8.98
2022-11-25T01:37:22.718Z,13.50
2022-11-25T01:39:50.484Z,7.95
2022-11-25T01:42:18.693Z,13.35
2022-11-25T01:45:28.525Z,9.82
2022-11-25T01:48:02.475Z,10.15
2022-11-25T01:50:33.023Z,12.25
2022-11-25T01:53:02.662Z,9.05
2022-11-25T01:55:34.607Z,8.25
2022-11-25T01:58:06.889Z,7.18
2022-11-25T02:00:34.684Z,12.13
2022-11-25T02:03:04.524Z,12.63
2022-11-25T02:05:40.402Z,9.23
2022-11-25T02:08:08.880Z,10.63
2022-11-25T02:10:36.906Z,10.32
2022-11-25T02:13:05.135Z,9.02
2022-11-25T02:15:35.263Z,10.85
2022-11-25T02:18:04.634Z,10.38
2022-11-25T02:20:32.420Z,8.25
2022-11-25T02:23:05.570Z,9.25
2022-11-25T02:25:36.880Z,10.90
2022-11-25T02:28:08.679Z,9.02
2022-11-25T02:30:36.774Z,5.90
2022-11-25T02:33:05.043Z,14.82
2022-11-25T02:35:35.468Z,11.50
2022-11-25T02:38:08.614Z,10.30
2022-11-25T02:40:43.214Z,12.30
2022-11-25T02:43:11.113Z,8.65
2022-11-25T02:45:49.595Z,13.15
2022-11-25T02:48:17.434Z,11.05
2022-11-25T02:50:45.483Z,9.50
2022-11-25T02:53:13.414Z,7.13
2022-11-25T02:55:42.481Z,7.03
2022-11-25T02:58:10.475Z,9.48
2022-11-25T03:00:38.418Z,9.15
2022-11-25T03:03:06.231Z,10.63
2022-11-25T03:05:34.653Z,9.85
2022-11-25T03:08:02.713Z,7.07
2022-11-25T03:10:30.355Z,5.15
2022-11-25T03:12:59.453Z,11.07
2022-11-25T03:15:27.461Z,10.98
2022-11-25T03:17:55.169Z,10.15
2022-11-25T03:20:22.908Z,9.57
2022-11-25T03:22:50.616Z,6.55
2022-11-25T03:25:19.577Z,4.57
2022-11-25T03:27:47.480Z,8.45
2022-11-25T03:30:18.256Z,9.52
2022-11-25T03:32:46.005Z,5.10
2022-11-25T03:35:14.490Z,8.20
2022-11-25T03:37:42.673Z,9.70
2022-11-25T03:40:12.583Z,5.88
2022-11-25T03:42:40.859Z,7.20
2022-11-25T03:45:10.895Z,5.53
2022-11-25T03:47:40.361Z,2.75
2022-11-25T03:50:09.961Z,6.18
2022-11-25T03:52:37.929Z,8.50
2022-11-25T03:55:06.446Z,3.83
2022-11-25T03:57:34.253Z,7.03
2022-11-25T04:00:02.019Z,5.30
2022-11-25T04:02:29.899Z,6.63
2022-11-25T04:04:58.950Z,6.22
2022-11-25T04:07:26.701Z,4.95
2022-11-25T04:09:54.382Z,8.30
2022-11-25T04:12:39.595Z,5.07
2022-11-25T04:15:08.139Z,3.72
2022-11-25T04:17:35.896Z,5.05
2022-11-25T04:20:05.861Z,3.58
2022-11-25T04:22:33.500Z,6.47
2022-11-25T04:25:01.209Z,4.57
2022-11-25T04:27:28.949Z,3.25
2022-11-25T04:29:56.637Z,5.78
2022-11-25T04:32:24.447Z,4.65
2022-11-25T04:34:52.176Z,3.53
2022-11-25T04:37:21.634Z,2.17
2022-11-25T04:39:49.490Z,3.20
2022-11-25T04:42:36.614Z,7.85
2022-11-25T04:45:22.642Z,6.28
2022-11-25T04:47:51.353Z,6.85
2022-11-25T04:50:20.994Z,6.15
2022-11-25T04:52:50.114Z,5.70
2022-11-25T04:55:17.903Z,6.07
2022-11-25T04:57:45.635Z,4.00
2022-11-25T05:00:13.309Z,2.97
2022-11-25T05:02:41.805Z,3.92
2022-11-25T05:05:10.361Z,3.90
2022-11-25T05:07:38.676Z,5.03
2022-11-25T05:10:09.472Z,3.90
2022-11-25T05:12:37.855Z,2.78
2022-11-25T05:15:07.922Z,3.72
2022-11-25T05:17:36.408Z,3.42
2022-11-25T05:20:04.745Z,4.97
2022-11-25T05:22:33.981Z,4.78
2022-11-25T05:25:01.739Z,4.07
2022-11-25T05:27:30.704Z,3.63
2022-11-25T05:29:58.398Z,2.63
2022-11-25T05:32:26.208Z,4.88
2022-11-25T05:34:53.906Z,3.80
2022-11-25T05:37:24.525Z,4.18
2022-11-25T05:39:52.913Z,3.08
2022-11-25T05:42:20.620Z,2.35
2022-11-25T05:44:49.616Z,3.88
2022-11-25T05:47:17.292Z,3.63
2022-11-25T05:49:44.908Z,2.88
2022-11-25T05:52:12.619Z,4.35
2022-11-25T05:54:40.284Z,2.80
2022-11-25T05:57:07.930Z,3.17
2022-11-25T05:59:35.546Z,3.50
2022-11-25T06:02:04.651Z,3.78
2022-11-25T06:04:32.342Z,4.07
2022-11-25T06:07:00.015Z,2.50
2022-11-25T06:09:27.781Z,4.65
2022-11-25T06:11:55.475Z,5.00
2022-11-25T06:14:23.083Z,3.55
2022-11-25T06:16:50.756Z,2.72
2022-11-25T06:19:19.748Z,3.75
2022-11-25T06:21:48.021Z,3.03
2022-11-25T06:24:15.705Z,2.20
2022-11-25T06:26:43.393Z,3.60
2022-11-25T06:29:11.078Z,5.22
2022-11-25T06:31:38.816Z,7.93
2022-11-25T06:34:09.215Z,4.20
2022-11-25T06:36:38.316Z,4.90
2022-11-25T06:39:06.021Z,4.43
2022-11-25T06:41:33.763Z,1.95
2022-11-25T06:44:01.529Z,3.08
2022-11-25T06:46:29.265Z,2.60
2022-11-25T06:48:57.015Z,2.97
2022-11-25T06:51:24.741Z,2.63
2022-11-25T06:53:54.123Z,4.60
2022-11-25T06:56:23.652Z,9.13
2022-11-25T06:58:52.564Z,3.83
2022-11-25T07:01:21.829Z,4.35
2022-11-25T07:03:51.050Z,4.30
2022-11-25T07:06:20.353Z,2.85
2022-11-25T07:08:48.853Z,4.03
2022-11-25T07:11:20.607Z,3.25
2022-11-25T07:13:49.029Z,6.10
2022-11-25T07:16:17.216Z,8.10
2022-11-25T07:18:45.432Z,4.90
2022-11-25T07:21:15.841Z,8.52
2022-11-25T07:23:44.834Z,3.63
2022-11-25T07:26:14.971Z,5.10
2022-11-25T07:28:44.821Z,7.38
2022-11-25T07:31:27.694Z,6.10
2022-11-25T07:33:57.913Z,4.90
2022-11-25T07:36:26.773Z,12.20
2022-11-25T07:38:55.728Z,10.30
2022-11-25T07:41:26.008Z,6.95
2022-11-25T07:43:57.501Z,6.00
2022-11-25T07:46:27.844Z,4.63
2022-11-25T07:48:57.019Z,9.05
2022-11-25T07:51:26.389Z,5.57
2022-11-25T07:53:55.324Z,5.38
2022-11-25T07:56:23.406Z,4.68
2022-11-25T07:58:51.452Z,4.88
2022-11-25T08:01:21.077Z,5.68
2022-11-25T08:03:50.377Z,4.93
2022-11-25T08:06:20.363Z,6.78
2022-11-25T08:08:48.813Z,6.45
2022-11-25T08:11:18.805Z,5.30
2022-11-25T08:13:47.010Z,5.95
2022-11-25T08:16:17.641Z,9.48
2022-11-25T08:18:47.199Z,4.18
2022-11-25T08:21:16.497Z,4.43
2022-11-25T08:23:47.531Z,8.85
2022-11-25T08:26:17.905Z,7.25
2022-11-25T08:28:46.989Z,5.60
2022-11-25T08:31:17.167Z,4.20
2022-11-25T08:33:47.203Z,5.90
2022-11-25T08:36:15.455Z,6.95
2022-11-25T08:38:44.457Z,5.30
2022-11-25T08:41:13.474Z,6.78
2022-11-25T08:43:41.477Z,6.50
2022-11-25T08:46:11.572Z,6.70
2022-11-25T08:48:39.692Z,10.55
2022-11-25T08:51:12.007Z,5.13
2022-11-25T08:53:41.258Z,5.53
2022-11-25T08:56:10.469Z,6.30
2022-11-25T08:58:39.023Z,5.95
2022-11-25T09:01:07.961Z,5.47
2022-11-25T09:03:37.354Z,8.23
2022-11-25T09:06:06.645Z,5.28
2022-11-25T09:08:35.866Z,6.43
2022-11-25T09:11:03.712Z,8.88
2022-11-25T09:13:31.438Z,6.28
2022-11-25T09:16:01.244Z,4.40
2022-11-25T09:18:30.501Z,8.23
2022-11-25T09:20:58.801Z,7.47
2022-11-25T09:23:27.069Z,6.43
2022-11-25T09:25:57.642Z,5.80
2022-11-25T09:28:26.807Z,6.32
2022-11-25T09:30:54.540Z,4.18
2022-11-25T09:33:22.346Z,5.57
2022-11-25T09:35:51.005Z,5.22
2022-11-25T09:38:18.686Z,6.55
2022-11-25T09:40:55.309Z,5.55
2022-11-25T09:43:54.107Z,5.22
2022-11-25T09:46:43.114Z,6.28
2022-11-25T09:49:24.201Z,7.22
2022-11-25T09:52:02.932Z,7.25
2022-11-25T09:54:36.133Z,6.55
2022-11-25T09:57:16.521Z,7.55
2022-11-25T09:59:53.733Z,5.85
2022-11-25T10:02:27.765Z,9.18
2022-11-25T10:05:03.359Z,9.55
2022-11-25T10:07:37.807Z,8.80
2022-11-25T10:10:11.232Z,5.50
2022-11-25T10:12:41.669Z,6.35
2022-11-25T10:15:18.905Z,7.72
2022-11-25T10:17:49.912Z,8.07
2022-11-25T10:20:23.427Z,9.30
2022-11-25T10:22:54.933Z,9.43
2022-11-25T10:25:24.614Z,10.02
2022-11-25T10:27:58.258Z,7.20
2022-11-25T10:30:28.922Z,18.10
2022-11-25T10:33:07.596Z,7.10
2022-11-25T10:35:39.659Z,5.47
2022-11-25T10:38:18.620Z,12.20
2022-11-25T10:40:49.775Z,7.78
2022-11-25T10:43:17.559Z,7.40
2022-11-25T10:45:52.238Z,8.52
2022-11-25T10:48:44.388Z,8.68
2022-11-25T10:51:37.100Z,9.57
2022-11-25T10:54:18.695Z,6.45
2022-11-25T10:56:52.958Z,9.95
2022-11-25T10:59:25.087Z,7.97
2022-11-25T11:02:06.495Z,7.53
2022-11-25T11:04:35.894Z,9.25
2022-11-25T11:07:09.705Z,7.88
2022-11-25T11:09:39.201Z,9.43
2022-11-25T11:12:19.057Z,8.55
2022-11-25T11:14:46.825Z,9.43
2022-11-25T11:17:36.416Z,8.68
2022-11-25T11:20:17.181Z,12.02
2022-11-25T11:22:52.557Z,9.63
2022-11-25T11:25:41.742Z,13.35
2022-11-25T11:28:29.259Z,12.30
2022-11-25T11:31:01.154Z,6.85
2022-11-25T11:33:42.251Z,11.30
2022-11-25T11:36:30.109Z,8.63
2022-11-25T11:39:26.715Z,9.38
2022-11-25T11:42:02.945Z,9.95
2022-11-25T11:44:41.446Z,10.80
2022-11-25T11:47:20.628Z,9.30
2022-11-25T11:50:08.128Z,8.13
2022-11-25T11:52:50.337Z,17.35
2022-11-25T11:55:40.005Z,9.30
2022-11-25T11:58:20.420Z,11.23
2022-11-25T12:00:59.980Z,11.55
2022-11-25T12:03:30.396Z,6.55
2022-11-25T12:06:04.457Z,14.77
2022-11-25T12:08:39.185Z,7.00
2022-11-25T12:11:13.390Z,8.02
2022-11-25T12:13:47.941Z,11.07
2022-11-25T12:16:21.653Z,6.75
2022-11-25T12:18:54.248Z,13.05
2022-11-25T12:21:42.284Z,7.15
2022-11-25T12:24:19.567Z,10.50
2022-11-25T12:26:55.245Z,12.40
2022-11-25T12:29:29.313Z,9.50
2022-11-25T12:32:03.657Z,8.23
2022-11-25T12:34:38.271Z,15.23
2022-11-25T12:37:15.329Z,8.63
2022-11-25T12:39:50.883Z,6.88
2022-11-25T12:42:25.812Z,14.32
2022-11-25T12:45:00.598Z,8.10
2022-11-25T12:47:28.709Z,9.13
2022-11-25T12:49:57.271Z,9.23
2022-11-25T12:52:43.226Z,4.70
2022-11-25T12:55:16.481Z,10.77
2022-11-25T12:58:20.022Z,15.93
2022-11-25T13:01:13.171Z,9.90
2022-11-25T13:04:07.646Z,9.18
2022-11-25T13:07:12.859Z,9.40
2022-11-25T13:09:56.102Z,12.95
2022-11-25T13:12:35.583Z,11.35
2022-11-25T13:15:25.975Z,12.02
2022-11-25T13:18:00.199Z,7.45
2022-11-25T13:20:52.546Z,11.40
2022-11-25T13:23:31.659Z,8.93
2022-11-25T13:26:51.303Z,13.60
2022-11-25T13:29:59.031Z,13.43
2022-11-25T13:32:40.496Z,12.70
2022-11-25T13:35:39.255Z,13.63
2022-11-25T13:38:41.585Z,11.80
2022-11-25T13:41:25.029Z,9.23
2022-11-25T13:44:02.439Z,11.38
2022-11-25T13:46:40.028Z,9.30
2022-11-25T13:49:33.203Z,8.73
2022-11-25T13:52:04.077Z,16.15
2022-11-25T13:54:40.838Z,9.30
2022-11-25T13:57:20.799Z,8.45
2022-11-25T13:59:55.593Z,8.57
2022-11-25T14:02:41.831Z,16.27
2022-11-25T14:05:51.379Z,12.60
2022-11-25T14:08:31.693Z,9.82
2022-11-25T14:11:19.826Z,11.95
2022-11-25T14:14:09.148Z,11.93
2022-11-25T14:16:50.146Z,10.88
2022-11-25T14:19:53.746Z,10.75
2022-11-25T14:22:36.425Z,17.90
2022-11-25T14:25:17.149Z,11.68
2022-11-25T14:27:48.385Z,18.60
2022-11-25T14:30:17.817Z,10.50
2022-11-25T14:32:53.288Z,10.40
2022-11-25T14:35:23.895Z,12.88
2022-11-25T14:37:55.649Z,12.02
2022-11-25T14:40:29.669Z,12.65
2022-11-25T14:43:06.069Z,9.60
2022-11-25T14:45:35.547Z,13.73
2022-11-25T14:48:14.496Z,15.82
2022-11-25T14:50:54.296Z,12.57
2022-11-25T14:53:22.233Z,11.77
2022-11-25T14:55:52.009Z,11.05
2022-11-25T14:58:20.503Z,11.07
2022-11-25T15:00:53.005Z,14.98
2022-11-25T15:03:21.902Z,12.05
2022-11-25T15:05:58.807Z,10.30
2022-11-25T15:08:27.430Z,12.82
2022-11-25T15:10:58.931Z,17.02
2022-11-25T15:13:34.211Z,16.08
2022-11-25T15:16:08.660Z,12.48
2022-11-25T15:18:37.026Z,11.18
2022-11-25T15:21:05.383Z,14.43
2022-11-25T15:23:36.842Z,16.90
2022-11-25T15:26:16.249Z,12.20
2022-11-25T15:28:44.993Z,15.82
2022-11-25T15:31:19.494Z,14.65
2022-11-25T15:33:48.439Z,16.67
2022-11-25T15:36:16.146Z,13.30
2022-11-25T15:38:45.554Z,14.88
2022-11-25T15:41:21.324Z,18.25
2022-11-25T15:43:51.464Z,10.70
2022-11-25T15:46:19.576Z,18.58
2022-11-25T15:48:49.518Z,20.98
2022-11-25T15:51:25.747Z,20.73
2022-11-25T15:53:55.710Z,22.27
2022-11-25T15:56:27.379Z,20.90
2022-11-25T15:59:01.354Z,28.65
2022-11-25T16:01:30.945Z,29.60
2022-11-25T16:04:12.426Z,30.77
2022-11-25T16:06:53.692Z,31.30
2022-11-25T16:09:23.720Z,31.45
2022-11-25T16:11:52.733Z,29.40
2022-11-25T16:14:27.458Z,26.67
2022-11-25T16:17:02.742Z,25.13
2022-11-25T16:19:37.757Z,29.10
2022-11-25T16:22:06.936Z,28.35
2022-11-25T16:24:41.640Z,23.75
2022-11-25T16:27:19.978Z,29.67
2022-11-25T16:29:53.616Z,22.08
2022-11-25T16:32:22.666Z,22.65
2022-11-25T16:34:50.445Z,20.45
2022-11-25T16:37:18.736Z,22.77
2022-11-25T16:39:46.442Z,27.73
2022-11-25T16:42:21.032Z,21.02
2022-11-25T16:44:50.933Z,16.05
2022-11-25T16:47:19.949Z,17.50
2022-11-25T16:49:47.805Z,17.92
2022-11-25T16:52:16.145Z,15.68
2022-11-25T16:54:43.845Z,24.60
2022-11-25T16:57:18.069Z,13.85
2022-11-25T16:59:51.130Z,17.27
2022-11-25T17:02:23.024Z,19.38
2022-11-25T17:04:50.961Z,13.20
2022-11-25T17:07:35.720Z,15.90
2022-11-25T17:10:03.817Z,17.60
2022-11-25T17:12:34.209Z,17.85
2022-11-25T17:15:06.620Z,22.20
2022-11-25T17:17:35.620Z,12.93
2022-11-25T17:20:03.414Z,18.88
2022-11-25T17:22:36.031Z,18.95
2022-11-25T17:25:07.038Z,19.52
2022-11-25T17:27:34.941Z,13.48
2022-11-25T17:30:06.998Z,14.35
2022-11-25T17:32:35.757Z,15.40
2022-11-25T17:35:03.421Z,15.77
2022-11-25T17:37:32.902Z,12.43
2022-11-25T17:40:00.929Z,16.88
2022-11-25T17:42:31.217Z,13.75
2022-11-25T17:44:59.516Z,13.40
2022-11-25T17:47:28.629Z,15.80
2022-11-25T17:49:57.791Z,15.27
2022-11-25T17:52:25.459Z,13.85
2022-11-25T17:54:53.144Z,14.30
2022-11-25T17:57:22.647Z,13.30
2022-11-25T17:59:50.618Z,16.27
2022-11-25T18:02:20.279Z,11.45
2022-11-25T18:04:49.856Z,17.02
2022-11-25T18:07:17.837Z,16.27
2022-11-25T18:09:45.909Z,15.00
2022-11-25T18:12:17.787Z,14.18
2022-11-25T18:14:46.240Z,14.10
2022-11-25T18:17:17.153Z,14.32
2022-11-25T18:19:46.579Z,15.20
2022-11-25T18:22:20.604Z,15.73
2022-11-25T18:24:48.266Z,13.70
2022-11-25T18:27:23.654Z,11.30
2022-11-25T18:29:52.286Z,12.88
2022-11-25T18:32:20.354Z,18.65
2022-11-25T18:34:48.130Z,16.58
2022-11-25T18:37:15.936Z,12.55
2022-11-25T18:39:46.512Z,15.48
2022-11-25T18:42:23.637Z,15.68
2022-11-25T18:44:51.457Z,15.52
2022-11-25T18:47:19.094Z,15.65
2022-11-25T18:49:50.971Z,17.75
2022-11-25T18:52:21.774Z,17.13
2022-11-25T18:54:50.829Z,18.33
2022-11-25T18:57:18.642Z,14.70
2022-11-25T18:59:56.035Z,12.23
2022-11-25T19:02:27.930Z,15.98
2022-11-25T19:04:55.707Z,16.60
2022-11-25T19:07:23.392Z,12.93
2022-11-25T19:09:52.449Z,19.15
2022-11-25T19:12:21.549Z,18.48
2022-11-25T19:14:51.047Z,14.40
2022-11-25T19:17:24.120Z,18.00
2022-11-25T19:19:51.785Z,19.15
2022-11-25T19:22:21.981Z,17.60
2022-11-25T19:24:49.750Z,12.52
2022-11-25T19:27:21.125Z,15.23
2022-11-25T19:29:49.149Z,17.58
2022-11-25T19:32:21.584Z,19.63
2022-11-25T19:34:53.340Z,16.65
2022-11-25T19:37:22.662Z,17.63
2022-11-25T19:39:51.920Z,12.85
2022-11-25T19:42:21.104Z,16.77
2022-11-25T19:44:48.812Z,15.82
2022-11-25T19:47:20.818Z,12.23
2022-11-25T19:49:49.172Z,13.93
2022-11-25T19:52:19.274Z,16.60
2022-11-25T19:54:46.969Z,13.50
2022-11-25T19:57:18.546Z,18.80
2022-11-25T19:59:48.023Z,16.13
2022-11-25T20:02:18.399Z,19.08
2022-11-25T20:04:47.949Z,14.73
2022-11-25T20:07:18.783Z,16.23
2022-11-25T20:09:47.104Z,12.35
2022-11-25T20:12:21.801Z,13.93
2022-11-25T20:14:51.774Z,15.20
2022-11-25T20:17:26.006Z,17.80
2022-11-25T20:19:57.093Z,18.63
2022-11-25T20:22:27.606Z,12.30
2022-11-25T20:24:56.613Z,15.75
2022-11-25T20:27:27.540Z,20.13
2022-11-25T20:29:57.074Z,12.98
2022-11-25T20:32:28.846Z,12.23
2022-11-25T20:34:56.730Z,14.95
2022-11-25T20:37:25.093Z,14.07
2022-11-25T20:39:54.151Z,12.40
2022-11-25T20:42:23.362Z,14.85
2022-11-25T20:44:56.037Z,14.77
2022-11-25T20:47:27.394Z,14.45
2022-11-25T20:49:55.066Z,13.93
2022-11-25T20:52:28.648Z,14.20
2022-11-25T20:54:56.495Z,16.58
2022-11-25T20:57:24.820Z,14.25
2022-11-25T20:59:52.550Z,16.88
2022-11-25T21:02:21.556Z,18.60
2022-11-25T21:04:50.737Z,10.85
2022-11-25T21:07:18.731Z,14.57
2022-11-25T21:09:46.421Z,21.15
2022-11-25T21:12:19.108Z,18.52
2022-11-25T21:14:47.813Z,15.43
2022-11-25T21:17:15.518Z,14.13
2022-11-25T21:19:43.329Z,15.15
2022-11-25T21:22:14.564Z,15.90
2022-11-25T21:24:44.601Z,20.65
2022-11-25T21:27:15.183Z,17.08
2022-11-25T21:29:44.045Z,14.55
2022-11-25T21:32:20.784Z,13.63
2022-11-25T21:37:18.735Z,22.63
2022-11-25T21:39:46.446Z,15.43
2022-11-25T21:42:21.666Z,15.38
2022-11-25T21:44:50.905Z,14.38
2022-11-25T21:47:20.477Z,15.23
2022-11-25T21:49:48.675Z,14.27
2022-11-25T21:52:18.604Z,15.25
2022-11-25T21:54:46.572Z,15.65
2022-11-25T21:57:17.044Z,12.27
2022-11-25T21:59:46.484Z,13.68
2022-11-25T22:02:18.500Z,15.95
2022-11-25T22:04:46.842Z,16.45
2022-11-25T22:07:14.674Z,17.65
2022-11-25T22:09:44.021Z,15.93
2022-11-25T22:12:30.439Z,10.27
2022-11-25T22:15:00.361Z,17.67
2022-11-25T22:17:29.053Z,13.95
2022-11-25T22:19:58.024Z,16.55
2022-11-25T22:22:25.887Z,18.98
2022-11-25T22:24:54.939Z,13.05
2022-11-25T22:27:26.125Z,15.25
2022-11-25T22:29:55.490Z,15.90
2022-11-25T22:32:23.318Z,15.93
2022-11-25T22:34:50.960Z,13.65
2022-11-25T22:37:21.053Z,15.50
2022-11-25T22:39:49.088Z,14.30
2022-11-25T22:42:29.607Z,12.15
2022-11-25T22:44:59.536Z,11.25
2022-11-25T22:47:31.622Z,18.75
2022-11-25T22:49:59.410Z,20.08
2022-11-25T22:52:30.331Z,12.93
2022-11-25T22:55:00.426Z,11.60
2022-11-25T22:57:29.431Z,15.75
2022-11-25T22:59:57.114Z,14.98
2022-11-25T23:02:35.036Z,19.17
2022-11-25T23:05:03.319Z,13.25
2022-11-25T23:07:31.084Z,16.02
2022-11-25T23:09:58.806Z,15.20
2022-11-25T23:12:26.448Z,11.20
2022-11-25T23:14:55.494Z,12.70
2022-11-25T23:17:25.337Z,13.70
2022-11-25T23:19:54.550Z,13.95
2022-11-25T23:22:22.298Z,13.18
2022-11-25T23:24:50.360Z,15.35
2022-11-25T23:27:18.068Z,16.65
2022-11-25T23:29:46.061Z,15.05
2022-11-25T23:32:19.362Z,10.77
2022-11-25T23:34:50.606Z,12.77
2022-11-25T23:37:18.494Z,12.27
2022-11-25T23:39:51.146Z,12.80
2022-11-25T23:42:20.482Z,10.00
2022-11-25T23:44:48.156Z,14.70
2022-11-25T23:47:19.850Z,12.15
2022-11-25T23:49:49.771Z,12.75
2022-11-25T23:52:22.143Z,12.77
2022-11-25T23:54:52.087Z,11.77
2022-11-25T23:57:22.054Z,17.30
2022-11-25T23:59:51.589Z,14.52
